Time;durP1;ratioP1;P1;durP2;ratioP2;P2;SDS_P1;SDS_P2;PMS_P1;PMS_P2;Temp;Humidity;BMP_temperature;BMP_pressure;BME280_temperature;BME280_humidity;BME280_pressure;Samples;Min_cycle;Max_cycle;Signal;HPM_P1;HPM_P2
2022/01/10 00:01:55;;;;;;;6.43;5.30;;;17.70;44.20;;;;;;5057239;28;20201;-71
2022/01/10 00:04:22;;;;;;;8.15;5.85;;;17.70;44.20;;;;;;5073804;28;20270;-73
2022/01/10 00:06:49;;;;;;;7.85;5.75;;;17.60;44.10;;;;;;5056877;28;20206;-73
2022/01/10 00:09:17;;;;;;;9.27;5.95;;;17.70;44.30;;;;;;5057673;28;20298;-71
2022/01/10 00:11:43;;;;;;;7.57;5.53;;;17.60;44.20;;;;;;5057231;28;20268;-70
2022/01/10 00:14:11;;;;;;;6.90;5.53;;;17.60;44.30;;;;;;5056454;28;20643;-71
2022/01/10 00:16:39;;;;;;;8.27;5.70;;;17.50;44.10;;;;;;5056527;28;20199;-71
2022/01/10 00:19:06;;;;;;;8.50;5.57;;;17.50;44.30;;;;;;5056179;28;20222;-71
2022/01/10 00:21:34;;;;;;;8.00;5.72;;;17.50;44.30;;;;;;5055841;28;20281;-73
2022/01/10 00:24:01;;;;;;;7.53;5.57;;;17.50;44.30;;;;;;5055724;28;20217;-71
2022/01/10 00:26:28;;;;;;;7.85;5.45;;;17.50;44.30;;;;;;5055886;28;20541;-71
2022/01/10 00:28:55;;;;;;;8.55;5.70;;;17.40;44.20;;;;;;5055758;28;20219;-70
2022/01/10 00:31:22;;;;;;;6.88;5.20;;;17.40;44.30;;;;;;5055743;28;20225;-71
2022/01/10 00:33:51;;;;;;;7.47;5.32;;;17.40;44.30;;;;;;5056089;28;20225;-70
2022/01/10 00:36:18;;;;;;;6.03;5.43;;;17.40;44.30;;;;;;5055521;28;20225;-71
2022/01/10 00:38:45;;;;;;;8.60;5.60;;;17.40;44.40;;;;;;5055512;28;20217;-69
2022/01/10 00:41:13;;;;;;;6.35;5.00;;;17.30;44.30;;;;;;5055649;28;20186;-73
2022/01/10 00:43:45;;;;;;;7.00;4.82;;;17.40;44.40;;;;;;5055602;28;20241;-69
2022/01/10 00:46:13;;;;;;;6.75;5.35;;;17.30;44.40;;;;;;5055245;28;20187;-71
2022/01/10 00:48:40;;;;;;;7.07;5.05;;;17.30;44.40;;;;;;5055274;28;20611;-71
2022/01/10 00:51:09;;;;;;;6.82;4.85;;;17.30;44.30;;;;;;5055024;28;20225;-70
2022/01/10 00:53:37;;;;;;;5.75;4.60;;;17.30;44.50;;;;;;5073014;28;20269;-73
2022/01/10 00:56:04;;;;;;;5.80;4.78;;;17.30;44.50;;;;;;5054954;28;20650;-71
2022/01/10 00:58:31;;;;;;;7.03;4.97;;;17.30;44.50;;;;;;5055003;28;20218;-71
2022/01/10 01:00:58;;;;;;;6.05;4.72;;;17.30;44.50;;;;;;5054979;28;20187;-69
2022/01/10 01:03:25;;;;;;;7.43;5.28;;;17.20;44.40;;;;;;5055065;28;20276;-71
2022/01/10 01:05:52;;;;;;;5.32;4.78;;;17.20;44.50;;;;;;5072990;28;20195;-71
2022/01/10 01:08:20;;;;;;;8.18;5.45;;;17.20;44.50;;;;;;5054896;28;20221;-70
2022/01/10 01:13:34;;;;;;;5.82;4.50;;;17.20;44.50;;;;;;5039409;28;20289;-73
2022/01/10 01:16:15;;;;;;;6.45;5.10;;;17.20;44.50;;;;;;5054592;28;20198;-73
2022/01/10 01:19:06;;;;;;;5.90;4.85;;;17.10;44.50;;;;;;5054751;28;20222;-71
2022/01/10 01:24:19;;;;;;;6.75;4.70;;;17.10;44.70;;;;;;5054646;28;20499;-73
2022/01/10 01:26:48;;;;;;;6.97;4.60;;;17.10;45.20;;;;;;5054796;28;20237;-71
2022/01/10 01:29:16;;;;;;;7.07;4.65;;;17.10;44.60;;;;;;5054500;28;20238;-71
2022/01/10 01:31:44;;;;;;;5.82;4.90;;;17.10;44.70;;;;;;5054715;28;20214;-71
2022/01/10 01:34:11;;;;;;;5.72;4.43;;;17.10;44.70;;;;;;5054342;28;20297;-71
2022/01/10 01:36:38;;;;;;;6.07;4.38;;;17.00;44.60;;;;;;5055851;28;20294;-71
2022/01/10 01:39:16;;;;;;;5.32;4.55;;;17.00;44.60;;;;;;5054149;28;20206;-69
2022/01/10 01:41:44;;;;;;;6.15;4.30;;;17.00;44.70;;;;;;5054672;28;20190;-71
2022/01/10 01:44:12;;;;;;;4.95;4.20;;;17.00;44.70;;;;;;5054633;28;20564;-71
2022/01/10 01:46:42;;;;;;;4.75;4.20;;;17.00;44.70;;;;;;5054433;28;20265;-71
2022/01/10 01:49:10;;;;;;;5.40;4.55;;;17.00;44.70;;;;;;5054582;28;20210;-71
2022/01/10 01:51:37;;;;;;;4.72;4.30;;;17.00;44.70;;;;;;5072389;28;20245;-72
2022/01/10 01:54:04;;;;;;;5.78;4.50;;;17.00;45.40;;;;;;5054288;28;20225;-70
2022/01/10 01:56:31;;;;;;;6.07;4.60;;;16.90;44.70;;;;;;5054634;28;20209;-70
2022/01/10 01:58:59;;;;;;;4.95;4.45;;;16.90;44.80;;;;;;5054334;28;20682;-70
2022/01/10 02:01:26;;;;;;;5.15;4.47;;;16.90;44.80;;;;;;5054656;28;20233;-69
2022/01/10 02:03:53;;;;;;;5.20;4.38;;;16.90;44.80;;;;;;5054361;28;20195;-72
2022/01/10 02:06:27;;;;;;;4.68;4.15;;;16.90;44.80;;;;;;5054451;28;20195;-71
2022/01/10 02:08:54;;;;;;;5.00;4.60;;;16.90;44.80;;;;;;5054104;28;20268;-71
2022/01/10 02:11:21;;;;;;;5.03;4.20;;;16.90;44.90;;;;;;5054011;28;20210;-71
2022/01/10 02:13:49;;;;;;;5.25;4.30;;;16.90;44.90;;;;;;5054339;28;20203;-71
2022/01/10 02:16:39;;;;;;;5.07;4.30;;;16.90;44.90;;;;;;5054135;28;20198;-71
2022/01/10 02:19:07;;;;;;;4.63;4.20;;;16.80;44.90;;;;;;5054204;28;20292;-72
2022/01/10 02:21:37;;;;;;;4.80;3.92;;;16.80;44.90;;;;;;5054626;28;20191;-71
2022/01/10 02:24:05;;;;;;;4.93;4.25;;;16.80;44.90;;;;;;5054017;28;20194;-69
2022/01/10 02:26:32;;;;;;;4.60;4.10;;;16.80;45.00;;;;;;5054118;28;20230;-71
2022/01/10 02:28:59;;;;;;;4.28;3.88;;;16.80;44.90;;;;;;5074989;28;20264;-72
2022/01/10 02:31:26;;;;;;;4.85;4.15;;;16.80;45.00;;;;;;5057960;28;20214;-73
2022/01/10 02:33:57;;;;;;;4.18;3.80;;;16.80;45.00;;;;;;5057739;28;20217;-70
2022/01/10 02:36:26;;;;;;;5.32;4.30;;;16.80;45.00;;;;;;5057707;28;20199;-70
2022/01/10 02:38:55;;;;;;;4.75;4.18;;;16.80;45.00;;;;;;5057757;28;20322;-71
2022/01/10 02:41:23;;;;;;;4.15;3.67;;;16.80;45.10;;;;;;5058002;28;20225;-70
2022/01/10 02:43:51;;;;;;;5.22;4.30;;;16.80;45.00;;;;;;5058225;28;20198;-72
2022/01/10 02:46:20;;;;;;;4.50;3.97;;;16.70;44.90;;;;;;5057719;28;20197;-71
2022/01/10 02:48:47;;;;;;;4.15;3.50;;;16.70;44.90;;;;;;5057557;28;20219;-70
2022/01/10 02:51:14;;;;;;;4.55;3.95;;;16.70;44.90;;;;;;5057967;28;20230;-71
2022/01/10 02:53:41;;;;;;;4.50;4.10;;;16.70;45.00;;;;;;5057737;28;20202;-73
2022/01/10 02:56:09;;;;;;;4.47;4.07;;;16.70;45.00;;;;;;5057976;28;20206;-70
2022/01/10 02:58:36;;;;;;;5.25;4.38;;;16.70;45.00;;;;;;5058193;28;20229;-71
2022/01/10 03:01:03;;;;;;;4.20;3.80;;;16.70;45.10;;;;;;5057697;28;20244;-70
2022/01/10 03:03:31;;;;;;;3.65;3.30;;;16.70;45.00;;;;;;5057709;28;20613;-71
2022/01/10 03:05:58;;;;;;;4.15;3.75;;;16.70;45.00;;;;;;5058094;28;20203;-70
2022/01/10 03:08:26;;;;;;;5.65;4.20;;;16.70;45.10;;;;;;5057398;28;20219;-71
2022/01/10 03:10:54;;;;;;;4.57;3.95;;;16.70;45.10;;;;;;5057750;28;20202;-69
2022/01/10 03:13:23;;;;;;;4.30;3.90;;;16.70;45.20;;;;;;5057565;28;20211;-73
2022/01/10 03:15:50;;;;;;;4.90;3.78;;;16.70;45.10;;;;;;5057207;28;20281;-71
2022/01/10 03:18:17;;;;;;;4.85;3.70;;;16.70;45.20;;;;;;5057338;28;20223;-70
2022/01/10 03:20:45;;;;;;;4.57;4.00;;;16.70;45.20;;;;;;5057278;28;20199;-72
2022/01/10 03:23:11;;;;;;;4.15;3.60;;;16.60;45.10;;;;;;5057156;28;20207;-71
2022/01/10 03:25:39;;;;;;;3.85;3.20;;;16.60;45.20;;;;;;5056888;28;20228;-71
2022/01/10 03:28:06;;;;;;;4.85;3.45;;;16.60;45.20;;;;;;5057342;28;20222;-71
2022/01/10 03:30:35;;;;;;;3.80;3.40;;;16.60;45.20;;;;;;5056898;28;20199;-73
2022/01/10 03:33:03;;;;;;;3.60;3.28;;;16.60;45.20;;;;;;5056786;28;20221;-71
2022/01/10 03:35:35;;;;;;;4.07;3.75;;;16.60;45.20;;;;;;5056865;28;20195;-71
2022/01/10 03:38:05;;;;;;;3.38;3.08;;;16.60;45.30;;;;;;5056436;28;20563;-71
2022/01/10 03:40:33;;;;;;;3.85;3.45;;;16.60;45.20;;;;;;5056797;28;20285;-71
2022/01/10 03:43:04;;;;;;;4.05;3.50;;;16.60;45.30;;;;;;5056883;28;20195;-71
2022/01/10 03:45:32;;;;;;;4.22;3.83;;;16.50;45.20;;;;;;5056942;28;20202;-71
2022/01/10 03:48:01;;;;;;;4.45;3.55;;;16.50;45.20;;;;;;5057246;28;20305;-71
2022/01/10 03:50:29;;;;;;;4.20;3.80;;;16.50;45.30;;;;;;5057049;28;20304;-70
2022/01/10 03:53:13;;;;;;;3.78;3.40;;;16.50;45.20;;;;;;5058528;28;20224;-72
2022/01/10 03:55:41;;;;;;;3.75;3.45;;;16.50;45.20;;;;;;5057403;28;20393;-70
2022/01/10 03:58:10;;;;;;;3.78;3.40;;;16.50;45.10;;;;;;5057270;28;20756;-71
2022/01/10 04:00:37;;;;;;;5.22;3.55;;;16.50;45.20;;;;;;5056524;28;20666;-69
2022/01/10 04:03:07;;;;;;;3.70;3.40;;;16.50;45.80;;;;;;5075008;28;20218;-71
2022/01/10 04:05:40;;;;;;;3.63;3.30;;;16.50;45.20;;;;;;5056790;28;20277;-71
2022/01/10 04:08:07;;;;;;;4.78;3.67;;;16.50;45.10;;;;;;5056650;28;20221;-71
2022/01/10 04:10:34;;;;;;;3.60;3.30;;;16.50;45.10;;;;;;5056454;28;20252;-70
2022/01/10 04:13:02;;;;;;;4.28;3.40;;;16.50;45.10;;;;;;5056346;28;20223;-73
2022/01/10 04:15:29;;;;;;;4.90;3.70;;;16.50;45.10;;;;;;5056601;28;20252;-71
2022/01/10 04:17:59;;;;;;;3.80;3.50;;;16.50;45.30;;;;;;5074318;28;20203;-70
2022/01/10 04:20:27;;;;;;;4.43;4.00;;;16.50;45.40;;;;;;5074501;28;20183;-71
2022/01/10 04:22:55;;;;;;;3.88;3.50;;;16.50;45.30;;;;;;5056336;28;20559;-70
2022/01/10 04:25:25;;;;;;;3.78;3.47;;;16.50;45.20;;;;;;5057967;28;20674;-72
2022/01/10 04:27:52;;;;;;;3.60;3.20;;;16.50;45.20;;;;;;5056345;28;20330;-70
2022/01/10 04:30:26;;;;;;;3.72;3.42;;;16.50;45.20;;;;;;5056627;28;20578;-71
2022/01/10 04:32:57;;;;;;;3.70;3.40;;;16.50;45.10;;;;;;5065272;28;20211;-72
2022/01/10 04:35:24;;;;;;;3.78;3.47;;;16.50;45.00;;;;;;5056376;28;20198;-72
2022/01/10 04:37:53;;;;;;;3.95;3.47;;;16.50;45.00;;;;;;5056276;28;20238;-71
2022/01/10 04:40:20;;;;;;;4.65;4.20;;;16.50;44.90;;;;;;5056214;28;20203;-71
2022/01/10 04:42:47;;;;;;;3.90;3.50;;;16.60;45.40;;;;;;5056098;28;20199;-72
2022/01/10 04:45:15;;;;;;;3.97;3.58;;;16.60;44.90;;;;;;5056574;28;20198;-72
2022/01/10 04:47:42;;;;;;;4.38;3.97;;;16.60;44.90;;;;;;5057328;28;20238;-71
2022/01/10 04:50:42;;;;;;;3.75;3.45;;;16.60;44.70;;;;;;5056376;28;20278;-71
2022/01/10 04:53:10;;;;;;;3.72;3.42;;;16.70;44.70;;;;;;5055894;28;20577;-71
2022/01/10 04:55:37;;;;;;;4.00;3.70;;;16.70;44.70;;;;;;5074058;28;20265;-71
2022/01/10 04:58:05;;;;;;;3.95;3.50;;;16.70;44.90;;;;;;5055999;28;20210;-71
2022/01/10 05:00:32;;;;;;;4.20;3.90;;;16.70;44.70;;;;;;5055853;28;20194;-72
2022/01/10 05:02:59;;;;;;;3.70;3.40;;;16.70;44.70;;;;;;5055922;28;20282;-70
2022/01/10 05:05:26;;;;;;;3.95;3.58;;;16.70;44.70;;;;;;5055821;28;20206;-69
2022/01/10 05:07:54;;;;;;;3.15;2.95;;;16.70;44.70;;;;;;5055848;28;20214;-71
2022/01/10 05:10:24;;;;;;;3.78;3.20;;;16.80;44.70;;;;;;5055693;28;20248;-72
2022/01/10 05:12:51;;;;;;;3.70;3.40;;;16.80;44.70;;;;;;5055448;28;20264;-70
2022/01/10 05:15:19;;;;;;;4.20;3.35;;;16.80;44.60;;;;;;5055316;28;20230;-72
2022/01/10 05:18:09;;;;;;;3.78;3.47;;;16.80;44.50;;;;;;5055342;28;20221;-71
2022/01/10 05:20:37;;;;;;;5.75;3.90;;;16.80;44.90;;;;;;5055404;28;20559;-71
2022/01/10 05:23:04;;;;;;;5.63;3.80;;;16.90;45.20;;;;;;5055011;28;20650;-69
2022/01/10 05:25:36;;;;;;;5.00;4.05;;;16.90;45.50;;;;;;5055013;28;20211;-69
2022/01/10 05:28:04;;;;;;;7.18;4.32;;;16.90;46.30;;;;;;5055249;28;20214;-70
2022/01/10 05:30:32;;;;;;;5.15;4.65;;;16.90;46.10;;;;;;5055230;28;20230;-72
2022/01/10 05:32:58;;;;;;;4.90;4.40;;;16.90;46.00;;;;;;5055267;28;20695;-72
2022/01/10 05:35:31;;;;;;;5.35;3.90;;;17.00;46.00;;;;;;5055301;28;20739;-72
2022/01/10 05:37:58;;;;;;;7.03;4.13;;;17.00;46.20;;;;;;5055352;28;20574;-71
2022/01/10 05:40:25;;;;;;;4.63;3.80;;;17.10;46.00;;;;;;5055358;28;20285;-70
2022/01/10 05:42:54;;;;;;;4.38;3.97;;;17.20;45.80;;;;;;5055575;28;20206;-71
2022/01/10 05:45:24;;;;;;;5.22;3.83;;;17.20;45.80;;;;;;5055615;28;20221;-69
2022/01/10 05:47:51;;;;;;;4.20;3.80;;;17.30;45.40;;;;;;5056240;28;20222;-72
2022/01/10 05:50:30;;;;;;;7.28;3.75;;;17.40;45.70;;;;;;5055585;28;20224;-71
2022/01/10 05:52:57;;;;;;;5.50;4.30;;;17.40;45.80;;;;;;5055058;28;20210;-71
2022/01/10 05:55:24;;;;;;;4.70;4.20;;;17.50;46.00;;;;;;5055119;28;20248;-71
2022/01/10 05:58:11;;;;;;;4.35;3.85;;;17.50;45.30;;;;;;5055801;28;20306;-71
2022/01/10 06:00:40;;;;;;;4.85;3.95;;;17.60;46.00;;;;;;5055147;28;20244;-70
2022/01/10 06:03:07;;;;;;;5.78;3.72;;;17.60;45.10;;;;;;5076508;28;20587;-69
2022/01/10 06:05:40;;;;;;;4.55;3.92;;;17.60;44.20;;;;;;5059737;28;20237;-71
2022/01/10 06:08:09;;;;;;;6.55;4.18;;;17.60;44.10;;;;;;5058632;28;20225;-70
2022/01/10 06:10:39;;;;;;;4.65;4.13;;;17.60;44.50;;;;;;5058535;28;20182;-68
2022/01/10 06:13:25;;;;;;;5.30;4.05;;;17.60;44.10;;;;;;5058278;28;20226;-69
2022/01/10 06:15:53;;;;;;;6.35;4.20;;;17.50;43.90;;;;;;5058659;28;20678;-69
2022/01/10 06:18:19;;;;;;;4.18;3.78;;;17.50;43.90;;;;;;5058089;28;20627;-72
2022/01/10 06:20:46;;;;;;;4.47;3.90;;;17.50;43.90;;;;;;5058340;28;20201;-71
2022/01/10 06:23:14;;;;;;;5.00;4.43;;;17.50;43.90;;;;;;5058069;28;20199;-70
2022/01/10 06:25:41;;;;;;;5.25;4.07;;;17.50;43.80;;;;;;5058036;28;20206;-72
2022/01/10 06:28:08;;;;;;;5.95;4.32;;;17.50;43.80;;;;;;5058170;28;20264;-70
2022/01/10 06:30:37;;;;;;;4.53;4.10;;;17.50;43.80;;;;;;5058173;28;20248;-70
2022/01/10 06:33:05;;;;;;;5.93;3.83;;;17.50;44.00;;;;;;5058080;28;20586;-69
2022/01/10 06:35:33;;;;;;;5.43;4.60;;;17.50;44.10;;;;;;5058262;28;20238;-70
2022/01/10 06:38:02;;;;;;;6.13;3.90;;;17.50;44.10;;;;;;5057984;28;20224;-71
2022/01/10 06:40:29;;;;;;;4.60;4.13;;;17.50;44.10;;;;;;5057897;28;20226;-70
2022/01/10 06:42:57;;;;;;;5.68;4.53;;;17.50;43.90;;;;;;5057811;28;20191;-70
2022/01/10 06:45:27;;;;;;;4.60;4.05;;;17.50;44.10;;;;;;5057822;28;20223;-68
2022/01/10 06:47:56;;;;;;;7.80;4.30;;;17.50;43.90;;;;;;5057669;28;20218;-71
2022/01/10 06:50:24;;;;;;;4.65;3.80;;;17.50;43.80;;;;;;5057816;28;20202;-71
2022/01/10 06:52:54;;;;;;;4.15;3.78;;;17.50;43.80;;;;;;5057679;28;20317;-69
2022/01/10 06:55:22;;;;;;;6.15;4.18;;;17.50;44.50;;;;;;5057678;28;20712;-71
2022/01/10 06:57:50;;;;;;;4.47;4.05;;;17.50;43.80;;;;;;5057584;28;20215;-70
2022/01/10 07:00:21;;;;;;;4.18;3.78;;;17.50;43.80;;;;;;5057730;28;20382;-70
2022/01/10 07:02:52;;;;;;;4.75;3.75;;;17.50;43.80;;;;;;5057553;28;20201;-68
2022/01/10 07:05:20;;;;;;;5.22;4.05;;;17.50;43.80;;;;;;5057860;28;20203;-70
2022/01/10 07:07:51;;;;;;;6.15;4.25;;;17.50;43.80;;;;;;5057533;28;20218;-70
2022/01/10 07:10:31;;;;;;;3.92;3.45;;;17.50;43.70;;;;;;5058208;28;20218;-70
2022/01/10 07:12:59;;;;;;;5.18;3.80;;;17.50;44.40;;;;;;5057288;28;20211;-72
2022/01/10 07:15:26;;;;;;;4.90;3.90;;;17.50;43.60;;;;;;5058023;28;20201;-72
2022/01/10 07:17:57;;;;;;;4.45;3.78;;;17.60;43.70;;;;;;5059502;28;20306;-71
2022/01/10 07:20:31;;;;;;;5.20;4.18;;;17.50;43.40;;;;;;5057299;28;20217;-71
2022/01/10 07:22:58;;;;;;;5.05;3.88;;;17.60;43.60;;;;;;5057499;28;20217;-70
2022/01/10 07:25:25;;;;;;;4.72;4.32;;;17.60;43.30;;;;;;5074766;28;20277;-69
2022/01/10 07:27:52;;;;;;;6.95;4.28;;;17.60;43.40;;;;;;5056780;28;20244;-71
2022/01/10 07:30:19;;;;;;;4.70;3.97;;;17.60;43.30;;;;;;5057132;28;20195;-70
2022/01/10 07:32:46;;;;;;;4.55;3.65;;;17.60;43.20;;;;;;5074527;28;20189;-71
2022/01/10 07:35:14;;;;;;;4.82;3.92;;;17.70;43.30;;;;;;5058444;28;20199;-72
2022/01/10 07:37:42;;;;;;;4.88;4.00;;;17.70;43.00;;;;;;5074798;28;20209;-72
2022/01/10 07:40:10;;;;;;;6.07;4.65;;;17.70;43.20;;;;;;5057016;28;20199;-72
2022/01/10 07:42:37;;;;;;;5.68;3.80;;;17.70;43.20;;;;;;5056893;28;20195;-72
2022/01/10 07:45:10;;;;;;;4.75;4.25;;;17.70;43.00;;;;;;5056607;28;20241;-73
2022/01/10 07:47:37;;;;;;;4.50;4.03;;;17.70;43.20;;;;;;5056403;28;20272;-72
2022/01/10 07:50:06;;;;;;;6.30;4.65;;;17.70;43.00;;;;;;5056670;28;20226;-72
2022/01/10 07:52:33;;;;;;;5.85;4.95;;;17.70;43.10;;;;;;5057207;28;20256;-73
2022/01/10 07:55:01;;;;;;;4.78;3.95;;;17.70;43.00;;;;;;5056449;28;20199;-70
2022/01/10 07:57:28;;;;;;;6.38;4.50;;;17.70;43.10;;;;;;5056687;28;20222;-72
2022/01/10 07:59:55;;;;;;;5.15;3.88;;;17.70;43.00;;;;;;5056748;28;20199;-74
2022/01/10 08:02:23;;;;;;;5.32;4.35;;;17.70;43.00;;;;;;5056803;28;20245;-73
2022/01/10 08:04:51;;;;;;;3.85;3.40;;;17.70;43.00;;;;;;5056993;28;20194;-71
2022/01/10 08:07:18;;;;;;;6.85;4.57;;;17.70;43.00;;;;;;5056833;28;20256;-72
2022/01/10 08:09:45;;;;;;;4.43;3.92;;;17.70;42.90;;;;;;5055993;28;20194;-72
2022/01/10 08:12:13;;;;;;;4.75;4.35;;;17.80;43.10;;;;;;5056111;28;20222;-72
2022/01/10 08:14:41;;;;;;;4.88;4.38;;;17.80;42.70;;;;;;5055889;28;20246;-71
2022/01/10 08:17:08;;;;;;;5.20;3.95;;;17.80;42.70;;;;;;5056125;28;20190;-72
2022/01/10 08:19:36;;;;;;;4.55;3.90;;;17.70;42.60;;;;;;5055700;28;20339;-73
2022/01/10 08:22:03;;;;;;;5.18;4.57;;;17.80;42.80;;;;;;5073861;28;20191;-72
2022/01/10 08:24:31;;;;;;;5.18;4.07;;;17.80;42.70;;;;;;5055278;28;20187;-69
2022/01/10 08:26:59;;;;;;;5.97;4.25;;;17.80;42.70;;;;;;5073953;28;20199;-73
2022/01/10 08:29:29;;;;;;;4.57;4.15;;;17.80;42.70;;;;;;5056910;28;20284;-73
2022/01/10 08:31:56;;;;;;;5.60;4.43;;;17.80;42.50;;;;;;5057275;28;20195;-72
2022/01/10 08:34:24;;;;;;;5.13;4.63;;;17.80;42.70;;;;;;5059307;28;20702;-70
2022/01/10 08:36:52;;;;;;;4.47;4.07;;;17.80;42.70;;;;;;5062236;28;20199;-72
2022/01/10 08:39:19;;;;;;;4.80;4.20;;;17.80;42.60;;;;;;5063525;28;20211;-71
2022/01/10 08:41:46;;;;;;;4.72;3.90;;;17.80;42.50;;;;;;5057673;28;20206;-72
2022/01/10 08:44:15;;;;;;;5.28;4.75;;;17.80;42.50;;;;;;5056354;28;20621;-71
2022/01/10 08:46:44;;;;;;;5.47;4.50;;;17.80;42.50;;;;;;5056223;28;20252;-72
2022/01/10 08:49:12;;;;;;;5.20;4.40;;;17.80;42.50;;;;;;5055997;28;20218;-72
2022/01/10 08:51:39;;;;;;;4.80;4.13;;;17.80;42.60;;;;;;5055925;28;20205;-74
2022/01/10 08:54:07;;;;;;;5.15;4.47;;;17.80;42.50;;;;;;5055844;28;20260;-74
2022/01/10 08:56:34;;;;;;;5.88;4.47;;;17.80;42.70;;;;;;5056169;28;20194;-71
2022/01/10 08:59:01;;;;;;;5.10;4.60;;;17.80;42.50;;;;;;5055483;28;20276;-72
2022/01/10 09:01:28;;;;;;;4.45;3.92;;;17.80;42.40;;;;;;5055697;28;20575;-72
2022/01/10 09:03:57;;;;;;;5.50;4.68;;;17.80;42.50;;;;;;5055400;28;20194;-72
2022/01/10 09:06:24;;;;;;;5.93;4.85;;;17.90;42.40;;;;;;5055375;28;20286;-72
2022/01/10 09:08:52;;;;;;;5.15;4.65;;;17.80;42.90;;;;;;5073272;28;20603;-70
2022/01/10 09:11:19;;;;;;;5.05;4.63;;;17.90;42.40;;;;;;5055262;28;20233;-73
2022/01/10 09:13:47;;;;;;;6.35;3.92;;;17.90;42.30;;;;;;5055156;28;20297;-71
2022/01/10 09:16:14;;;;;;;5.05;4.53;;;17.90;42.30;;;;;;5055117;28;20191;-70
2022/01/10 09:18:42;;;;;;;6.10;4.57;;;17.90;42.30;;;;;;5054901;28;20291;-74
2022/01/10 09:21:10;;;;;;;5.15;4.38;;;17.80;42.20;;;;;;5054986;28;20205;-72
2022/01/10 09:23:37;;;;;;;4.80;4.07;;;17.90;42.30;;;;;;5055170;28;20201;-70
2022/01/10 09:26:04;;;;;;;4.50;4.10;;;17.90;42.40;;;;;;5055282;28;20210;-72
2022/01/10 09:28:32;;;;;;;5.00;4.00;;;17.90;42.30;;;;;;5055070;28;20219;-73
2022/01/10 09:30:59;;;;;;;7.05;5.03;;;17.90;42.30;;;;;;5055136;28;20205;-72
2022/01/10 09:33:26;;;;;;;4.18;3.78;;;17.90;42.30;;;;;;5073105;28;20274;-72
2022/01/10 09:35:54;;;;;;;4.72;4.25;;;18.00;42.30;;;;;;5054919;28;20202;-71
2022/01/10 09:38:22;;;;;;;4.50;4.07;;;18.00;42.90;;;;;;5054932;28;20218;-72
2022/01/10 09:40:49;;;;;;;5.97;4.55;;;18.00;42.10;;;;;;5055002;28;20222;-73
2022/01/10 09:43:18;;;;;;;5.63;4.60;;;18.00;42.10;;;;;;5054904;28;20205;-73
2022/01/10 09:45:45;;;;;;;4.82;4.28;;;18.00;42.10;;;;;;5054862;28;20205;-73
2022/01/10 09:48:12;;;;;;;5.38;4.28;;;18.00;42.30;;;;;;5054573;28;20270;-73
2022/01/10 09:50:39;;;;;;;4.25;3.85;;;18.00;42.10;;;;;;5055045;28;20229;-70
2022/01/10 09:53:07;;;;;;;4.03;3.60;;;18.00;42.10;;;;;;5054968;28;20580;-71
2022/01/10 09:55:35;;;;;;;5.15;3.83;;;18.00;41.90;;;;;;5054770;28;20245;-73
2022/01/10 09:58:03;;;;;;;5.15;4.40;;;18.00;41.90;;;;;;5054742;28;20233;-73
2022/01/10 10:00:30;;;;;;;4.80;4.28;;;18.10;42.00;;;;;;5054609;28;20234;-73
2022/01/10 10:02:57;;;;;;;5.53;4.30;;;18.10;41.90;;;;;;5054226;28;20199;-70
2022/01/10 10:05:25;;;;;;;4.70;4.22;;;18.10;41.90;;;;;;5054809;28;20257;-73
2022/01/10 10:07:52;;;;;;;4.85;4.22;;;18.10;41.90;;;;;;5054472;28;20221;-72
2022/01/10 10:10:19;;;;;;;5.60;4.20;;;18.10;41.60;;;;;;5073278;28;20627;-72
2022/01/10 10:12:49;;;;;;;5.13;4.47;;;18.10;41.70;;;;;;5054397;28;20264;-72
2022/01/10 10:15:17;;;;;;;4.22;3.78;;;18.20;41.70;;;;;;5072318;28;20215;-73
2022/01/10 10:17:45;;;;;;;5.13;4.40;;;18.20;41.70;;;;;;5054680;28;20211;-72
2022/01/10 10:20:15;;;;;;;5.50;4.50;;;18.20;41.60;;;;;;5054500;28;20230;-72
2022/01/10 10:22:43;;;;;;;4.93;4.40;;;18.20;41.60;;;;;;5054939;28;20202;-70
2022/01/10 10:25:11;;;;;;;4.00;3.63;;;18.20;41.40;;;;;;5054275;28;20230;-72
2022/01/10 10:27:39;;;;;;;4.35;3.70;;;18.20;41.50;;;;;;5054381;28;20695;-71
2022/01/10 10:30:10;;;;;;;4.82;4.15;;;18.30;41.50;;;;;;5054397;28;20644;-74
2022/01/10 10:32:37;;;;;;;4.65;3.95;;;18.30;41.50;;;;;;5054508;28;20197;-74
2022/01/10 10:35:05;;;;;;;5.43;4.93;;;18.30;41.50;;;;;;5054262;28;20215;-72
2022/01/10 10:37:36;;;;;;;5.00;3.90;;;18.30;41.30;;;;;;5054476;28;20226;-72
2022/01/10 10:40:05;;;;;;;5.20;3.97;;;18.30;42.00;;;;;;5054523;28;20183;-72
2022/01/10 10:42:33;;;;;;;5.68;4.80;;;18.30;41.50;;;;;;5054195;28;20210;-71
2022/01/10 10:45:03;;;;;;;6.50;5.15;;;18.30;42.00;;;;;;5054353;28;20606;-72
2022/01/10 10:47:31;;;;;;;4.80;4.28;;;18.30;41.30;;;;;;5054109;28;20325;-73
2022/01/10 10:49:58;;;;;;;5.68;4.50;;;18.30;41.30;;;;;;5057320;28;20241;-72
2022/01/10 10:52:31;;;;;;;4.88;4.28;;;18.30;41.30;;;;;;5075289;28;20199;-72
2022/01/10 10:54:57;;;;;;;4.80;4.30;;;18.30;41.40;;;;;;5075543;28;20205;-73
2022/01/10 10:57:24;;;;;;;4.38;3.97;;;18.30;41.40;;;;;;5057922;28;20218;-70
2022/01/10 10:59:51;;;;;;;4.90;4.25;;;18.30;41.40;;;;;;5057981;28;20199;-73
2022/01/10 11:02:21;;;;;;;5.25;3.88;;;18.30;41.20;;;;;;5057677;28;20199;-72
2022/01/10 11:04:49;;;;;;;4.50;4.07;;;18.30;41.20;;;;;;5057559;28;20195;-72
2022/01/10 11:07:19;;;;;;;4.55;3.78;;;18.30;41.40;;;;;;5057711;28;20221;-72
2022/01/10 11:09:47;;;;;;;4.68;3.90;;;18.30;41.30;;;;;;5057466;28;20203;-70
2022/01/10 11:12:16;;;;;;;4.57;4.10;;;18.30;41.20;;;;;;5057303;28;20198;-70
2022/01/10 11:14:43;;;;;;;4.32;3.92;;;18.30;41.10;;;;;;5057278;28;20219;-73
2022/01/10 11:17:17;;;;;;;4.35;3.95;;;18.40;41.20;;;;;;5057270;28;20290;-72
2022/01/10 11:19:45;;;;;;;4.35;3.80;;;18.40;41.00;;;;;;5075765;28;20175;-73
2022/01/10 11:22:13;;;;;;;5.03;3.80;;;18.40;41.10;;;;;;5057686;28;20203;-72
2022/01/10 11:24:42;;;;;;;4.15;3.75;;;18.40;40.90;;;;;;5057149;28;20197;-70
2022/01/10 11:27:09;;;;;;;4.75;4.15;;;18.40;40.70;;;;;;5057679;28;20695;-71
2022/01/10 11:29:41;;;;;;;4.13;3.47;;;18.50;40.50;;;;;;5057533;28;20191;-71
2022/01/10 11:32:08;;;;;;;4.80;3.92;;;18.50;40.50;;;;;;5057435;28;20195;-72
2022/01/10 11:34:36;;;;;;;4.57;3.97;;;18.50;40.60;;;;;;5075130;28;20215;-74
2022/01/10 11:37:04;;;;;;;4.93;3.80;;;18.50;40.50;;;;;;5057170;28;20671;-72
2022/01/10 11:39:37;;;;;;;3.88;3.40;;;18.60;40.50;;;;;;5057296;28;20756;-72
2022/01/10 11:42:19;;;;;;;5.07;3.78;;;18.60;40.40;;;;;;5057431;28;20194;-72
2022/01/10 11:45:09;;;;;;;3.92;3.50;;;18.60;40.40;;;;;;5057088;28;20576;-72
2022/01/10 11:48:04;;;;;;;4.30;3.58;;;18.70;40.70;;;;;;5075056;28;20221;-71
2022/01/10 11:50:31;;;;;;;4.43;3.97;;;18.70;40.50;;;;;;5057195;28;20190;-72
2022/01/10 11:53:00;;;;;;;5.50;4.13;;;18.70;40.30;;;;;;5057037;28;20647;-71
2022/01/10 11:55:32;;;;;;;3.58;3.28;;;18.70;40.20;;;;;;5057196;28;20218;-72
2022/01/10 11:58:03;;;;;;;4.97;3.45;;;18.80;40.30;;;;;;5057044;28;20218;-72
2022/01/10 12:00:36;;;;;;;5.40;3.78;;;18.80;40.10;;;;;;5074728;28;20177;-71
2022/01/10 12:03:03;;;;;;;4.68;3.85;;;18.80;40.70;;;;;;5056633;28;20194;-70
2022/01/10 12:05:31;;;;;;;4.72;3.60;;;18.90;40.30;;;;;;5056714;28;20274;-73
2022/01/10 12:07:59;;;;;;;5.72;3.92;;;18.90;40.00;;;;;;5057209;28;20214;-74
2022/01/10 12:10:26;;;;;;;4.95;3.63;;;18.90;40.20;;;;;;5057435;28;20586;-70
2022/01/10 12:13:02;;;;;;;4.22;3.63;;;18.90;40.20;;;;;;5056760;28;20191;-72
2022/01/10 12:15:32;;;;;;;4.47;3.97;;;19.00;40.30;;;;;;5074355;28;20678;-72
2022/01/10 12:17:59;;;;;;;5.93;4.40;;;19.00;40.20;;;;;;5056531;28;20276;-71
2022/01/10 12:20:26;;;;;;;4.72;3.60;;;19.00;40.10;;;;;;5056548;28;20202;-70
2022/01/10 12:22:53;;;;;;;5.35;4.03;;;19.00;40.20;;;;;;5074430;28;20214;-73
2022/01/10 12:25:20;;;;;;;4.90;3.92;;;19.00;40.10;;;;;;5055896;28;20662;-73
2022/01/10 12:27:48;;;;;;;4.25;3.88;;;19.00;39.90;;;;;;5056437;28;20214;-73
2022/01/10 12:30:17;;;;;;;6.25;4.32;;;19.00;40.10;;;;;;5056325;28;20592;-72
2022/01/10 12:32:45;;;;;;;4.72;3.55;;;19.00;39.90;;;;;;5056372;28;20199;-72
2022/01/10 12:35:12;;;;;;;4.82;3.60;;;19.10;40.10;;;;;;5074141;28;20206;-72
2022/01/10 12:37:40;;;;;;;4.28;3.75;;;19.10;39.90;;;;;;5074309;28;20238;-71
2022/01/10 12:40:10;;;;;;;4.13;3.72;;;19.10;39.80;;;;;;5056015;28;20248;-70
2022/01/10 12:42:37;;;;;;;3.78;3.47;;;19.10;40.00;;;;;;5074435;28;20187;-72
2022/01/10 12:45:05;;;;;;;4.43;2.85;;;19.10;39.70;;;;;;5074276;28;20187;-73
2022/01/10 12:47:35;;;;;;;3.47;3.17;;;19.10;39.90;;;;;;5056441;28;20549;-73
2022/01/10 12:50:02;;;;;;;4.07;3.28;;;19.10;39.70;;;;;;5056142;28;20667;-72
2022/01/10 12:52:29;;;;;;;3.50;3.20;;;19.10;39.70;;;;;;5057029;28;20203;-72
2022/01/10 12:54:57;;;;;;;4.55;3.22;;;19.10;39.60;;;;;;5056447;28;20215;-71
2022/01/10 12:57:24;;;;;;;4.50;3.80;;;19.10;40.00;;;;;;5056516;28;20229;-72
2022/01/10 12:59:51;;;;;;;4.28;3.28;;;19.10;39.90;;;;;;5057736;28;20199;-70
2022/01/10 13:02:18;;;;;;;4.38;3.72;;;19.10;39.90;;;;;;5058690;28;20229;-72